createdAt,value
2022-10-23T00:01:32.322Z,98067.25
2022-10-23T00:04:02.286Z,98069.97
2022-10-23T00:06:30.509Z,98071.25
2022-10-23T00:08:57.790Z,98078.53
2022-10-23T00:11:27.494Z,98070.56
2022-10-23T00:13:56.813Z,98066.66
2022-10-23T00:16:23.744Z,98066.53
2022-10-23T00:18:50.736Z,98072.59
2022-10-23T00:21:18.493Z,98065.53
2022-10-23T00:23:46.294Z,98062.69
2022-10-23T00:26:17.525Z,98068.28
2022-10-23T00:28:46.837Z,98066.53
2022-10-23T00:31:14.831Z,98064.72
2022-10-23T00:33:43.138Z,98055.81
2022-10-23T00:36:13.434Z,98056.72
2022-10-23T00:38:43.580Z,98053.91
2022-10-23T00:41:22.134Z,98054.81
2022-10-23T00:44:17.872Z,98055.91
2022-10-23T00:46:46.490Z,98052.88
2022-10-23T00:49:14.794Z,98044.13
2022-10-23T00:51:49.154Z,98042.78
2022-10-23T00:54:23.955Z,98043.44
2022-10-23T00:56:54.785Z,98045.13
2022-10-23T00:59:21.944Z,98037.50
2022-10-23T01:01:49.202Z,98031.72
2022-10-23T01:04:17.052Z,98039.19
2022-10-23T01:06:46.794Z,98029.28
2022-10-23T01:09:40.023Z,98028.28
2022-10-23T01:12:09.425Z,98029.13
2022-10-23T01:15:00.963Z,98016.81
2022-10-23T01:17:42.472Z,98018.88
2022-10-23T01:20:28.019Z,98014.25
2022-10-23T01:23:17.829Z,98027.75
2022-10-23T01:26:19.856Z,98022.13
2022-10-23T01:28:53.669Z,98025.44
2022-10-23T01:31:50.809Z,98027.19
2022-10-23T01:34:28.632Z,98018.38
2022-10-23T01:36:57.365Z,98014.06
2022-10-23T01:39:37.425Z,98017.66
2022-10-23T01:42:10.722Z,98008.81
2022-10-23T01:45:13.364Z,98012.00
2022-10-23T01:47:45.217Z,98010.03
2022-10-23T01:50:16.449Z,98008.56
2022-10-23T01:52:46.526Z,98009.09
2022-10-23T01:55:14.620Z,98015.19
2022-10-23T01:57:44.679Z,98006.16
2022-10-23T02:00:14.916Z,98007.88
2022-10-23T02:02:55.794Z,98002.63
2022-10-23T02:05:31.031Z,98006.44
2022-10-23T02:08:00.810Z,98013.59
2022-10-23T02:11:09.277Z,98006.47
2022-10-23T02:13:57.302Z,98012.13
2022-10-23T02:16:32.665Z,98011.13
2022-10-23T02:19:32.834Z,98011.94
2022-10-23T02:22:16.655Z,98012.22
2022-10-23T02:24:55.553Z,98005.91
2022-10-23T02:27:30.703Z,98010.00
2022-10-23T02:30:05.386Z,97999.38
2022-10-23T02:32:33.761Z,98004.97
2022-10-23T02:35:00.973Z,98000.56
2022-10-23T02:37:27.932Z,97999.88
2022-10-23T02:39:55.479Z,97991.25
2022-10-23T02:42:34.494Z,98000.25
2022-10-23T02:45:24.580Z,97995.03
2022-10-23T02:48:15.509Z,97998.16
2022-10-23T02:50:52.314Z,98005.44
2022-10-23T02:53:27.848Z,98002.63
2022-10-23T02:56:14.011Z,98016.97
2022-10-23T02:59:13.841Z,98015.63
2022-10-23T03:02:07.094Z,98018.03
2022-10-23T03:04:40.298Z,98018.28
2022-10-23T03:07:14.820Z,98015.56
2022-10-23T03:09:42.792Z,98020.78
2022-10-23T03:12:09.772Z,98012.72
2022-10-23T03:14:37.481Z,98016.88
2022-10-23T03:17:05.563Z,98024.31
2022-10-23T03:19:32.440Z,98018.38
2022-10-23T03:21:59.447Z,98018.53
2022-10-23T03:24:26.409Z,98030.75
2022-10-23T03:26:53.424Z,98027.09
2022-10-23T03:29:29.811Z,98044.25
2022-10-23T03:31:57.076Z,98043.22
2022-10-23T03:34:24.016Z,98056.44
2022-10-23T03:36:53.221Z,98058.13
2022-10-23T03:39:20.964Z,98055.78
2022-10-23T03:41:48.234Z,98048.53
2022-10-23T03:44:16.764Z,98043.69
2022-10-23T03:46:45.250Z,98046.50
2022-10-23T03:49:12.143Z,98038.25
2022-10-23T03:51:44.872Z,98037.34
2022-10-23T03:54:11.801Z,98027.25
2022-10-23T03:56:38.744Z,98024.94
2022-10-23T03:59:07.828Z,98023.75
2022-10-23T04:01:34.997Z,98021.44
2022-10-23T04:04:02.015Z,98026.13
2022-10-23T04:06:29.499Z,98023.47
2022-10-23T04:08:58.486Z,98027.34
2022-10-23T04:11:25.501Z,98029.88
2022-10-23T04:13:52.678Z,98040.22
2022-10-23T04:16:19.596Z,98039.00
2022-10-23T04:18:46.671Z,98040.44
2022-10-23T04:21:13.828Z,98041.03
2022-10-23T04:23:40.745Z,98046.56
2022-10-23T04:26:16.863Z,98045.50
2022-10-23T04:28:43.788Z,98045.66
2022-10-23T04:31:10.849Z,98042.56
2022-10-23T04:33:40.766Z,98045.25
2022-10-23T04:36:08.264Z,98048.00
2022-10-23T04:38:35.123Z,98050.00
2022-10-23T04:41:03.220Z,98044.97
2022-10-23T04:43:30.170Z,98043.38
2022-10-23T04:45:57.654Z,98043.16
2022-10-23T04:48:27.024Z,98044.50
2022-10-23T04:51:14.499Z,98041.13
2022-10-23T04:53:53.333Z,98045.19
2022-10-23T04:56:46.262Z,98038.28
2022-10-23T04:59:18.982Z,98046.53
2022-10-23T05:01:46.828Z,98051.91
2022-10-23T05:04:14.375Z,98048.31
2022-10-23T05:07:07.562Z,98061.84
2022-10-23T05:09:52.115Z,98065.75
2022-10-23T05:12:26.699Z,98062.69
2022-10-23T05:14:54.398Z,98071.78
2022-10-23T05:17:26.201Z,98070.63
2022-10-23T05:19:57.999Z,98070.72
2022-10-23T05:22:27.387Z,98065.41
2022-10-23T05:24:54.873Z,98071.47
2022-10-23T05:27:26.412Z,98081.03
2022-10-23T05:29:54.857Z,98080.41
2022-10-23T05:32:29.717Z,98072.31
2022-10-23T05:34:58.901Z,98067.66
2022-10-23T05:37:29.133Z,98061.84
2022-10-23T05:40:22.994Z,98060.84
2022-10-23T05:42:54.311Z,98058.00
2022-10-23T05:45:31.153Z,98065.31
2022-10-23T05:48:33.950Z,98051.78
2022-10-23T05:51:22.568Z,98058.00
2022-10-23T05:54:08.382Z,98072.56
2022-10-23T05:56:43.579Z,98081.63
2022-10-23T05:59:22.825Z,98075.78
2022-10-23T06:01:53.985Z,98063.16
2022-10-23T06:04:34.921Z,98054.28
2022-10-23T06:07:26.559Z,98059.53
2022-10-23T06:09:55.878Z,98075.63
2022-10-23T06:12:23.107Z,98083.31
2022-10-23T06:14:51.965Z,98094.75
2022-10-23T06:17:20.956Z,98095.09
2022-10-23T06:19:48.393Z,98102.69
2022-10-23T06:24:56.093Z,98097.38
2022-10-23T06:27:26.352Z,98095.41
2022-10-23T06:29:55.067Z,98101.00
2022-10-23T06:32:22.737Z,98104.53
2022-10-23T06:35:09.562Z,98103.75
2022-10-23T06:37:36.571Z,98108.97
2022-10-23T06:40:17.505Z,98100.69
2022-10-23T06:43:16.331Z,98098.53
2022-10-23T06:46:04.696Z,98104.41
2022-10-23T06:48:54.576Z,98093.56
2022-10-23T06:51:29.725Z,98085.25
2022-10-23T06:53:57.367Z,98085.84
2022-10-23T06:56:50.852Z,98099.75
2022-10-23T06:59:23.972Z,98094.44
2022-10-23T07:04:25.405Z,98109.03
2022-10-23T07:06:57.261Z,98132.56
2022-10-23T07:09:30.030Z,98143.47
2022-10-23T07:11:57.006Z,98132.56
2022-10-23T07:14:32.942Z,98150.47
2022-10-23T07:17:02.160Z,98148.31
2022-10-23T07:19:29.369Z,98140.91
2022-10-23T07:21:58.045Z,98147.56
2022-10-23T07:24:40.267Z,98128.81
2022-10-23T07:27:18.336Z,98128.88
2022-10-23T07:29:50.555Z,98129.81
2022-10-23T07:32:17.990Z,98123.09
2022-10-23T07:35:03.569Z,98111.94
2022-10-23T07:37:34.319Z,98119.63
2022-10-23T07:40:07.334Z,98126.53
2022-10-23T07:42:42.771Z,98136.56
2022-10-23T07:45:11.451Z,98137.97
2022-10-23T07:47:42.506Z,98145.25
2022-10-23T07:50:12.425Z,98164.44
2022-10-23T07:52:39.308Z,98176.03
2022-10-23T07:55:11.730Z,98178.94
2022-10-23T07:57:52.411Z,98184.88
2022-10-23T08:00:30.678Z,98179.16
2022-10-23T08:03:10.767Z,98197.97
2022-10-23T08:05:37.734Z,98209.84
2022-10-23T08:08:05.285Z,98210.28
2022-10-23T08:10:32.680Z,98200.25
2022-10-23T08:13:00.251Z,98213.59
2022-10-23T08:15:49.842Z,98216.88
2022-10-23T08:18:37.052Z,98215.31
2022-10-23T08:21:04.857Z,98211.69
2022-10-23T08:23:33.645Z,98208.16
2022-10-23T08:26:03.182Z,98199.50
2022-10-23T08:28:32.882Z,98217.72
2022-10-23T08:31:11.627Z,98211.44
2022-10-23T08:33:40.258Z,98220.94
2022-10-23T08:36:18.483Z,98215.94
2022-10-23T08:38:45.958Z,98211.81
2022-10-23T08:41:38.731Z,98208.31
2022-10-23T08:44:17.429Z,98208.75
2022-10-23T08:46:50.023Z,98217.81
2022-10-23T08:49:56.617Z,98217.06
2022-10-23T08:52:47.961Z,98202.66
2022-10-23T08:55:23.223Z,98199.78
2022-10-23T08:58:15.900Z,98199.28
2022-10-23T09:00:44.181Z,98199.47
2022-10-23T09:03:13.045Z,98200.06
2022-10-23T09:05:51.932Z,98208.41
2022-10-23T09:08:33.218Z,98207.19
2022-10-23T09:11:20.277Z,98204.78
2022-10-23T09:13:50.168Z,98195.22
2022-10-23T09:16:25.970Z,98209.91
2022-10-23T09:18:54.338Z,98218.66
2022-10-23T09:21:25.368Z,98217.97
2022-10-23T09:23:52.274Z,98226.53
2022-10-23T09:26:19.211Z,98239.53
2022-10-23T09:28:57.766Z,98246.09
2022-10-23T09:31:24.686Z,98254.84
2022-10-23T09:33:59.881Z,98256.75
2022-10-23T09:36:29.460Z,98255.38
2022-10-23T09:39:00.862Z,98253.75
2022-10-23T09:41:39.558Z,98253.94
2022-10-23T10:17:44.485Z,98249.50
2022-10-23T10:20:48.159Z,98253.81
2022-10-23T10:23:36.616Z,98249.72
2022-10-23T10:26:25.354Z,98244.34
2022-10-23T10:29:24.066Z,98239.25
2022-10-23T10:32:02.698Z,98234.53
2022-10-23T10:34:46.273Z,98245.00
2022-10-23T10:37:16.031Z,98246.84
2022-10-23T10:39:54.703Z,98253.41
2022-10-23T10:42:36.404Z,98259.59
2022-10-23T10:45:15.273Z,98271.09
2022-10-23T10:47:51.994Z,98265.56
2022-10-23T10:50:39.247Z,98264.91
2022-10-23T10:53:52.286Z,98261.03
2022-10-23T10:56:22.090Z,98258.78
2022-10-23T10:58:57.882Z,98257.72
2022-10-23T11:02:02.063Z,98246.00
2022-10-23T11:05:01.227Z,98246.63
2022-10-23T11:07:35.212Z,98256.91
2022-10-23T11:10:14.431Z,98251.28
2022-10-23T11:12:43.706Z,98256.06
2022-10-23T11:15:21.037Z,98244.72
2022-10-23T11:17:53.722Z,98250.31
2022-10-23T11:20:50.870Z,98263.22
2022-10-23T11:23:41.649Z,98274.75
2022-10-23T11:26:23.997Z,98266.97
2022-10-23T11:28:56.772Z,98270.69
2022-10-23T11:31:36.649Z,98258.78
2022-10-23T11:34:18.263Z,98270.69
2022-10-23T11:36:54.565Z,98269.88
2022-10-23T11:39:29.904Z,98274.59
2022-10-23T11:42:06.455Z,98266.16
2022-10-23T11:44:46.392Z,98265.91
2022-10-23T11:47:38.965Z,98254.19
2022-10-23T11:50:06.783Z,98265.13
2022-10-23T11:53:12.758Z,98268.97
2022-10-23T11:55:42.189Z,98267.19
2022-10-23T11:58:23.707Z,98262.41
2022-10-23T12:01:04.392Z,98269.22
2022-10-23T12:03:49.477Z,98269.44
2022-10-23T12:06:27.286Z,98281.75
2022-10-23T12:09:00.104Z,98269.78
2022-10-23T12:11:48.617Z,98278.88
2022-10-23T12:14:31.760Z,98275.41
2022-10-23T12:16:59.808Z,98279.13
2022-10-23T12:19:30.375Z,98268.19
2022-10-23T12:22:01.933Z,98283.78
2022-10-23T12:24:58.254Z,98288.75
2022-10-23T12:27:41.881Z,98290.59
2022-10-23T12:30:34.453Z,98280.72
2022-10-23T12:33:25.359Z,98280.13
2022-10-23T12:36:07.121Z,98280.94
2022-10-23T12:38:39.886Z,98288.78
2022-10-23T12:41:31.598Z,98286.31
2022-10-23T12:44:04.450Z,98286.50
2022-10-23T12:46:35.886Z,98281.56
2022-10-23T12:49:23.707Z,98290.81
2022-10-23T12:52:00.940Z,98289.59
2022-10-23T12:54:31.034Z,98296.53
2022-10-23T12:56:58.212Z,98297.59
2022-10-23T12:59:38.979Z,98296.13
2022-10-23T13:02:25.496Z,98294.50
2022-10-23T13:04:55.268Z,98292.88
2022-10-23T13:07:27.046Z,98288.56
2022-10-23T13:09:58.879Z,98301.88
2022-10-23T13:12:31.033Z,98303.97
2022-10-23T13:15:07.133Z,98302.56
2022-10-23T13:17:38.114Z,98302.75
2022-10-23T13:21:04.169Z,98309.94
2022-10-23T13:23:34.196Z,98305.81
2022-10-23T13:26:06.946Z,98302.31
2022-10-23T13:28:35.317Z,98307.06
2022-10-23T13:31:06.970Z,98308.91
2022-10-23T13:33:40.766Z,98314.66
2022-10-23T13:36:13.536Z,98319.19
2022-10-23T13:38:46.355Z,98324.97
2022-10-23T13:41:18.816Z,98318.78
2022-10-23T13:43:47.153Z,98325.34
2022-10-23T13:46:21.935Z,98327.22
2022-10-23T13:48:49.351Z,98321.25
2022-10-23T13:51:21.251Z,98321.44
2022-10-23T13:53:48.554Z,98319.00
2022-10-23T13:56:17.330Z,98313.25
2022-10-23T13:58:44.483Z,98314.88
2022-10-23T14:01:30.073Z,98324.94
2022-10-23T14:03:58.792Z,98321.44
2022-10-23T14:06:26.195Z,98335.19
2022-10-23T14:08:53.236Z,98331.91
2022-10-23T14:11:21.028Z,98338.28
2022-10-23T14:13:48.610Z,98338.47
2022-10-23T14:16:18.114Z,98339.66
2022-10-23T14:18:45.097Z,98333.69
2022-10-23T14:21:14.190Z,98331.81
2022-10-23T14:23:41.244Z,98328.69
2022-10-23T14:26:11.153Z,98330.97
2022-10-23T14:28:38.768Z,98335.03
2022-10-23T14:31:07.506Z,98338.72
2022-10-23T14:33:34.400Z,98338.88
2022-10-23T14:36:01.414Z,98346.84
2022-10-23T14:38:28.636Z,98347.00
2022-10-23T14:40:55.618Z,98356.25
2022-10-23T14:43:23.703Z,98362.13
2022-10-23T14:45:50.647Z,98360.59
2022-10-23T14:48:18.221Z,98367.75
2022-10-23T14:50:47.762Z,98364.59
2022-10-23T14:53:15.444Z,98370.91
2022-10-23T14:55:42.501Z,98377.78
2022-10-23T14:58:09.505Z,98372.94
2022-10-23T15:00:36.400Z,98377.94
2022-10-23T15:03:03.331Z,98385.72
2022-10-23T15:05:30.170Z,98383.53
2022-10-23T15:07:58.591Z,98378.72
2022-10-23T15:10:25.513Z,98378.44
2022-10-23T15:12:52.368Z,98384.91
2022-10-23T15:15:19.433Z,98399.41
2022-10-23T15:17:46.284Z,98386.84
2022-10-23T15:20:13.229Z,98383.84
2022-10-23T15:22:40.167Z,98393.59
2022-10-23T15:25:07.751Z,98387.53
2022-10-23T15:27:35.454Z,98399.00
2022-10-23T15:30:02.731Z,98408.25
2022-10-23T15:32:29.580Z,98402.16
2022-10-23T15:34:58.343Z,98410.59
2022-10-23T15:37:25.212Z,98411.31
2022-10-23T15:39:52.509Z,98414.41
2022-10-23T15:42:19.464Z,98406.06
2022-10-23T15:44:46.319Z,98415.75
2022-10-23T15:47:13.226Z,98413.00
2022-10-23T15:49:40.191Z,98408.72
2022-10-23T15:54:40.677Z,98411.66
2022-10-23T15:57:07.533Z,98415.38
2022-10-23T15:59:34.697Z,98416.19
2022-10-23T16:02:01.875Z,98430.91
2022-10-23T16:04:28.971Z,98426.41
2022-10-23T16:06:55.850Z,98433.53
2022-10-23T16:09:22.721Z,98441.63
2022-10-23T16:11:49.592Z,98442.88
2022-10-23T16:14:17.657Z,98443.59
2022-10-23T16:16:44.797Z,98448.19
2022-10-23T16:19:12.178Z,98450.16
2022-10-23T16:21:39.075Z,98455.34
2022-10-23T16:24:07.752Z,98460.97
2022-10-23T16:26:36.031Z,98456.69
2022-10-23T16:29:06.287Z,98462.09
2022-10-23T16:31:34.323Z,98465.31
2022-10-23T16:34:03.271Z,98456.69
2022-10-23T16:36:30.611Z,98463.56
2022-10-23T16:39:14.953Z,98465.88
2022-10-23T16:42:00.537Z,98471.69
2022-10-23T16:44:38.243Z,98475.81
2022-10-23T16:47:06.391Z,98487.59
2022-10-23T16:49:33.396Z,98485.28
2022-10-23T16:52:00.266Z,98480.47
2022-10-23T16:54:27.580Z,98485.59
2022-10-23T16:56:54.456Z,98478.66
2022-10-23T16:59:21.314Z,98482.59
2022-10-23T17:01:48.350Z,98487.06
2022-10-23T17:04:15.354Z,98485.06
2022-10-23T17:06:42.330Z,98484.09
2022-10-23T17:09:09.237Z,98498.66
2022-10-23T17:11:39.619Z,98490.72
2022-10-23T17:14:14.020Z,98492.91
2022-10-23T17:16:45.828Z,98497.88
2022-10-23T17:19:39.670Z,98492.88
2022-10-23T17:22:02.449Z,98511.94
2022-10-23T17:24:29.557Z,98509.63
2022-10-23T17:26:57.023Z,98511.78
2022-10-23T17:29:23.999Z,98508.28
2022-10-23T17:31:51.179Z,98504.78
2022-10-23T17:34:21.278Z,98513.44
2022-10-23T17:36:51.770Z,98515.72
2022-10-23T17:39:22.052Z,98515.75
2022-10-23T17:41:49.619Z,98516.84
2022-10-23T17:44:16.710Z,98517.13
2022-10-23T17:46:43.939Z,98515.81
2022-10-23T17:49:11.999Z,98514.03
2022-10-23T17:51:39.492Z,98515.41
2022-10-23T17:54:09.435Z,98519.16
2022-10-23T17:56:38.532Z,98519.53
2022-10-23T17:59:09.489Z,98525.50
2022-10-23T18:01:36.547Z,98521.03
2022-10-23T18:04:06.717Z,98525.16
2022-10-23T18:06:45.509Z,98522.03
2022-10-23T18:09:13.124Z,98518.22
2022-10-23T18:11:45.389Z,98526.69
2022-10-23T18:14:14.202Z,98517.72
2022-10-23T18:16:41.911Z,98527.47
2022-10-23T18:19:10.465Z,98528.41
2022-10-23T18:21:38.196Z,98527.72
2022-10-23T18:24:05.403Z,98536.16
2022-10-23T18:26:35.324Z,98533.34
2022-10-23T18:29:05.316Z,98533.78
2022-10-23T18:31:32.197Z,98532.81
2022-10-23T18:34:05.080Z,98546.53
2022-10-23T18:36:35.776Z,98544.88
2022-10-23T18:39:04.763Z,98552.22
2022-10-23T18:41:36.407Z,98549.38
2022-10-23T18:44:03.922Z,98559.56
2022-10-23T18:46:31.163Z,98559.22
2022-10-23T18:48:58.119Z,98557.38
2022-10-23T18:51:33.674Z,98552.66
2022-10-23T18:54:02.315Z,98554.22
2022-10-23T18:56:29.498Z,98552.56
2022-10-23T18:58:58.790Z,98550.50
2022-10-23T19:01:27.311Z,98547.66
2022-10-23T19:06:24.251Z,98551.06
2022-10-23T19:08:51.946Z,98548.69
2022-10-23T19:11:21.209Z,98550.31
2022-10-23T19:13:48.153Z,98557.16
2022-10-23T19:16:18.601Z,98556.44
2022-10-23T19:18:50.346Z,98561.47
2022-10-23T19:21:20.574Z,98555.81
2022-10-23T19:23:49.388Z,98563.63
2022-10-23T19:26:16.887Z,98568.97
2022-10-23T19:28:47.043Z,98558.81
2022-10-23T19:31:14.172Z,98561.44
2022-10-23T19:33:41.487Z,98562.03
2022-10-23T19:36:12.539Z,98566.25
2022-10-23T19:38:41.610Z,98573.63
2022-10-23T19:41:08.991Z,98564.06
2022-10-23T19:43:37.851Z,98565.03
2022-10-23T19:46:09.431Z,98570.03
2022-10-23T19:48:42.610Z,98567.25
2022-10-23T19:51:09.639Z,98573.75
2022-10-23T19:53:36.805Z,98573.56
2022-10-23T19:56:06.012Z,98574.31
2022-10-23T19:58:33.546Z,98582.81
2022-10-23T20:01:11.005Z,98582.78
2022-10-23T20:03:39.362Z,98574.34
2022-10-23T20:06:12.542Z,98581.94
2022-10-23T20:08:40.773Z,98592.69
2022-10-23T20:11:08.038Z,98581.31
2022-10-23T20:13:35.518Z,98580.63
2022-10-23T20:16:02.403Z,98586.63
2022-10-23T20:18:29.385Z,98587.22
2022-10-23T20:20:56.341Z,98600.56
2022-10-23T20:23:23.240Z,98592.72
2022-10-23T20:25:50.119Z,98590.88
2022-10-23T20:28:17.099Z,98592.97
2022-10-23T20:30:45.566Z,98591.91
2022-10-23T20:33:12.517Z,98598.38
2022-10-23T20:35:42.799Z,98594.91
2022-10-23T20:38:10.004Z,98596.34
2022-10-23T20:40:37.228Z,98599.47
2022-10-23T20:43:04.443Z,98591.63
2022-10-23T20:45:31.369Z,98597.03
2022-10-23T20:47:58.832Z,98601.47
2022-10-23T20:50:25.795Z,98590.84
2022-10-23T20:52:52.694Z,98593.63
2022-10-23T20:55:20.073Z,98590.72
2022-10-23T20:57:47.360Z,98594.97
2022-10-23T21:00:15.385Z,98586.63
2022-10-23T21:02:43.891Z,98596.53
2022-10-23T21:05:13.120Z,98584.44
2022-10-23T21:07:39.980Z,98588.44
2022-10-23T21:10:07.381Z,98590.69
2022-10-23T21:12:34.492Z,98587.84
2022-10-23T21:15:01.357Z,98590.44
2022-10-23T21:17:29.381Z,98591.94
2022-10-23T21:19:56.270Z,98588.09
2022-10-23T21:22:23.129Z,98590.38
2022-10-23T21:24:49.967Z,98591.75
2022-10-23T21:27:17.323Z,98588.03
2022-10-23T21:29:44.194Z,98595.22
2022-10-23T21:32:11.087Z,98594.72
2022-10-23T21:34:38.004Z,98600.16
2022-10-23T21:37:13.103Z,98593.84
2022-10-23T21:39:44.775Z,98596.09
2022-10-23T21:42:15.166Z,98585.00
2022-10-23T21:44:42.225Z,98587.78
2022-10-23T21:47:09.517Z,98585.97
2022-10-23T21:49:36.575Z,98585.84
2022-10-23T21:52:04.335Z,98586.56
2022-10-23T21:54:31.332Z,98582.53
2022-10-23T21:56:58.274Z,98577.25
2022-10-23T21:59:30.033Z,98580.00
2022-10-23T22:01:58.908Z,98582.22
2022-10-23T22:04:26.068Z,98575.72
2022-10-23T22:06:53.396Z,98573.47
2022-10-23T22:09:21.194Z,98573.75
2022-10-23T22:11:52.939Z,98575.94
2022-10-23T22:14:20.480Z,98574.41
2022-10-23T22:16:48.389Z,98576.69
2022-10-23T22:19:17.665Z,98568.38
2022-10-23T22:21:44.910Z,98571.44
2022-10-23T22:24:12.370Z,98562.53
2022-10-23T22:26:45.333Z,98563.94
2022-10-23T22:29:18.687Z,98559.72
2022-10-23T22:31:48.887Z,98557.56
2022-10-23T22:37:11.308Z,98555.28
2022-10-23T22:39:39.211Z,98542.88
2022-10-23T22:42:06.417Z,98553.44
2022-10-23T22:44:33.266Z,98549.78
2022-10-23T22:47:00.191Z,98550.19
2022-10-23T22:49:27.021Z,98554.97
2022-10-23T22:51:53.891Z,98554.38
2022-10-23T22:54:20.874Z,98560.41
2022-10-23T22:56:47.770Z,98556.38
2022-10-23T22:59:14.618Z,98555.63
2022-10-23T23:01:45.415Z,98559.84
2022-10-23T23:04:36.726Z,98552.81
2022-10-23T23:07:00.380Z,98553.75
2022-10-23T23:09:27.375Z,98555.53
2022-10-23T23:11:54.278Z,98560.88
2022-10-23T23:14:23.765Z,98563.00
2022-10-23T23:16:53.341Z,98560.94
2022-10-23T23:19:22.987Z,98555.38
2022-10-23T23:21:50.367Z,98558.25
2022-10-23T23:24:17.333Z,98556.41
2022-10-23T23:26:44.335Z,98558.53
2022-10-23T23:29:11.532Z,98566.38
2022-10-23T23:31:38.521Z,98562.06
2022-10-23T23:34:05.599Z,98565.97
2022-10-23T23:36:33.944Z,98568.09
2022-10-23T23:39:01.478Z,98562.56
2022-10-23T23:41:29.640Z,98562.94
2022-10-23T23:43:58.198Z,98564.13
2022-10-23T23:46:26.454Z,98561.38
2022-10-23T23:48:53.433Z,98567.22
2022-10-23T23:51:23.355Z,98576.22
2022-10-23T23:53:51.393Z,98568.31
2022-10-23T23:56:19.590Z,98572.78
2022-10-23T23:58:46.601Z,98564.25
